Time;durP1;ratioP1;P1;durP2;ratioP2;P2;SDS_P1;SDS_P2;PMS_P1;PMS_P2;Temp;Humidity;BMP_temperature;BMP_pressure;BME280_temperature;BME280_humidity;BME280_pressure;Samples;Min_cycle;Max_cycle;Signal;HPM_P1;HPM_P2
2023/07/29 00:00:11;;;;;;;2.72;1.83;;;;;;;;;;5048691;28;20206;-92
2023/07/29 00:02:38;;;;;;;2.20;2.00;;;;;;;;;;5058533;28;20234;-92
2023/07/29 00:05:07;;;;;;;2.03;1.92;;;;;;;;;;5049604;28;20206;-92
2023/07/29 00:07:34;;;;;;;1.90;1.80;;;;;;;;;;5049695;28;20221;-91
2023/07/29 00:10:01;;;;;;;1.90;1.80;;;;;;;;;;5058805;28;20234;-92
2023/07/29 00:12:28;;;;;;;2.03;1.90;;;;;;;;;;5049357;28;20230;-91
2023/07/29 00:14:55;;;;;;;2.08;1.80;;;;;;;;;;5048792;28;20206;-91
2023/07/29 00:17:22;;;;;;;1.90;1.80;;;;;;;;;;5064260;28;20222;-90
2023/07/29 00:19:49;;;;;;;1.80;1.70;;;;;;;;;;5050775;28;20215;-92
2023/07/29 00:22:17;;;;;;;2.03;1.92;;;;;;;;;;5053612;28;20227;-91
2023/07/29 00:24:44;;;;;;;2.58;2.10;;;;;;;;;;5044733;28;20211;-91
2023/07/29 00:27:11;;;;;;;2.65;1.88;;;;;;;;;;5047370;28;20248;-91
2023/07/29 00:29:38;;;;;;;2.47;2.03;;;;;;;;;;5045193;28;20230;-92
2023/07/29 00:32:06;;;;;;;2.10;2.00;;;;;;;;;;5056011;28;20232;-91
2023/07/29 00:34:33;;;;;;;1.92;1.83;;;;;;;;;;5052970;28;20202;-90
2023/07/29 00:37:00;;;;;;;3.72;2.00;;;;;;;;;;5054914;28;20230;-91
2023/07/29 00:39:29;;;;;;;3.80;2.33;;;;;;;;;;5060160;28;20214;-92
2023/07/29 00:41:56;;;;;;;2.03;1.92;;;;;;;;;;5064161;28;20213;-92
2023/07/29 00:44:23;;;;;;;1.88;1.77;;;;;;;;;;5056715;28;20202;-91
2023/07/29 00:46:51;;;;;;;1.95;1.85;;;;;;;;;;5055426;28;20202;-91
2023/07/29 00:49:18;;;;;;;2.03;1.90;;;;;;;;;;5048500;28;20222;-92
2023/07/29 00:51:45;;;;;;;2.05;1.95;;;;;;;;;;5055867;28;20237;-91
2023/07/29 00:54:12;;;;;;;2.10;1.92;;;;;;;;;;5053312;28;20555;-91
2023/07/29 00:56:40;;;;;;;1.80;1.70;;;;;;;;;;5048380;28;20202;-91
2023/07/29 00:59:07;;;;;;;3.83;2.10;;;;;;;;;;5039641;28;20222;-91
2023/07/29 01:01:34;;;;;;;2.22;2.13;;;;;;;;;;5054223;28;20240;-92
2023/07/29 01:04:01;;;;;;;4.90;2.08;;;;;;;;;;5046588;28;20224;-91
2023/07/29 01:06:31;;;;;;;2.72;2.05;;;;;;;;;;5050324;28;20214;-91
2023/07/29 01:09:03;;;;;;;2.45;2.25;;;;;;;;;;5062957;28;20254;-92
2023/07/29 01:11:35;;;;;;;2.42;2.05;;;;;;;;;;5042324;28;20309;-91
2023/07/29 01:14:07;;;;;;;7.53;2.10;;;;;;;;;;5062291;28;20309;-90
2023/07/29 01:16:37;;;;;;;1.80;1.70;;;;;;;;;;5051060;28;20198;-91
2023/07/29 01:19:07;;;;;;;2.63;1.73;;;;;;;;;;5053274;28;20233;-82
2023/07/29 01:21:35;;;;;;;3.05;2.13;;;;;;;;;;5054418;28;20210;-82
2023/07/29 01:24:04;;;;;;;2.35;2.20;;;;;;;;;;5060351;28;20224;-82
2023/07/29 01:26:31;;;;;;;1.95;1.73;;;;;;;;;;5034665;28;20217;-82
2023/07/29 01:28:58;;;;;;;2.35;1.60;;;;;;;;;;5043822;28;20226;-82
2023/07/29 01:31:29;;;;;;;2.55;2.10;;;;;;;;;;5053889;28;20596;-81
2023/07/29 01:33:59;;;;;;;2.22;2.00;;;;;;;;;;5060543;28;20232;-81
2023/07/29 01:36:29;;;;;;;2.13;1.70;;;;;;;;;;5046725;28;20206;-82
2023/07/29 01:38:56;;;;;;;2.60;1.70;;;;;;;;;;5045188;28;20279;-81
2023/07/29 01:41:25;;;;;;;2.72;1.92;;;;;;;;;;5060177;28;20203;-82
2023/07/29 01:43:52;;;;;;;3.17;2.08;;;;;;;;;;5061315;28;20276;-82
2023/07/29 01:46:19;;;;;;;3.00;2.00;;;;;;;;;;5054331;28;20578;-83
2023/07/29 01:48:46;;;;;;;2.30;2.10;;;;;;;;;;5053918;28;20718;-83
2023/07/29 01:51:14;;;;;;;1.70;1.60;;;;;;;;;;5058525;28;20227;-82
2023/07/29 01:53:41;;;;;;;1.73;1.63;;;;;;;;;;5033387;28;20234;-82
2023/07/29 01:56:08;;;;;;;2.20;1.98;;;;;;;;;;5056987;28;20210;-82
2023/07/29 01:58:36;;;;;;;2.28;2.00;;;;;;;;;;5059543;28;20231;-83
2023/07/29 02:01:03;;;;;;;2.33;1.90;;;;;;;;;;5070413;28;20671;-82
2023/07/29 02:03:30;;;;;;;2.20;1.95;;;;;;;;;;5044076;28;20619;-82
2023/07/29 02:05:57;;;;;;;2.35;2.15;;;;;;;;;;5050851;28;20218;-82
2023/07/29 02:08:24;;;;;;;2.70;1.77;;;;;;;;;;5057486;28;20236;-82
2023/07/29 02:10:51;;;;;;;1.80;1.70;;;;;;;;;;5040861;28;20226;-82
2023/07/29 02:13:18;;;;;;;3.03;1.77;;;;;;;;;;5050031;28;20233;-82
2023/07/29 02:15:47;;;;;;;2.70;1.90;;;;;;;;;;5048720;28;20205;-82
2023/07/29 02:18:14;;;;;;;1.83;1.73;;;;;;;;;;5034109;28;20631;-82
2023/07/29 02:20:48;;;;;;;4.55;1.60;;;;;;;;;;5034401;28;20584;-81
2023/07/29 02:23:15;;;;;;;2.33;1.73;;;;;;;;;;5054059;28;20691;-82
2023/07/29 02:25:42;;;;;;;2.70;1.50;;;;;;;;;;5052999;28;20680;-81
2023/07/29 02:28:10;;;;;;;1.67;1.50;;;;;;;;;;5048638;28;20719;-82
2023/07/29 02:30:38;;;;;;;1.45;1.35;;;;;;;;;;5065897;28;20229;-81
2023/07/29 02:33:06;;;;;;;2.25;1.80;;;;;;;;;;5058671;28;20225;-83
2023/07/29 02:35:33;;;;;;;3.00;2.20;;;;;;;;;;5049993;28;20207;-82
2023/07/29 02:38:00;;;;;;;1.75;1.65;;;;;;;;;;5046703;28;20233;-82
2023/07/29 02:40:29;;;;;;;4.03;1.35;;;;;;;;;;5049983;28;20215;-82
2023/07/29 02:42:56;;;;;;;1.90;1.80;;;;;;;;;;5052658;28;20229;-82
2023/07/29 02:45:23;;;;;;;2.72;1.50;;;;;;;;;;5045522;28;20222;-82
2023/07/29 02:47:50;;;;;;;1.52;1.40;;;;;;;;;;5052771;28;20230;-83
2023/07/29 02:50:18;;;;;;;1.50;1.40;;;;;;;;;;5052657;28;20289;-83
2023/07/29 02:52:45;;;;;;;1.65;1.55;;;;;;;;;;5057031;28;20611;-82
2023/07/29 02:55:12;;;;;;;1.27;1.25;;;;;;;;;;5059857;28;20552;-82
2023/07/29 02:57:39;;;;;;;1.60;1.50;;;;;;;;;;5047463;28;20237;-82
2023/07/29 03:00:07;;;;;;;1.33;1.15;;;;;;;;;;5040380;28;20579;-81
2023/07/29 03:02:34;;;;;;;2.80;1.52;;;;;;;;;;5062448;28;20233;-81
2023/07/29 03:05:02;;;;;;;1.60;1.50;;;;;;;;;;5064417;28;20205;-82
2023/07/29 03:07:30;;;;;;;4.15;1.60;;;;;;;;;;5056731;28;20312;-81
2023/07/29 03:09:57;;;;;;;2.33;1.50;;;;;;;;;;5064924;28;20225;-81
2023/07/29 03:12:24;;;;;;;1.50;1.40;;;;;;;;;;5056346;28;20237;-81
2023/07/29 03:14:51;;;;;;;1.45;1.40;;;;;;;;;;5073068;28;20239;-81
2023/07/29 03:17:18;;;;;;;1.25;1.25;;;;;;;;;;5069829;28;20233;-82
2023/07/29 03:19:46;;;;;;;1.77;1.50;;;;;;;;;;5047039;28;20219;-82
2023/07/29 03:22:14;;;;;;;1.25;1.23;;;;;;;;;;5060318;28;20229;-81
2023/07/29 03:24:42;;;;;;;2.33;1.77;;;;;;;;;;5036526;28;20202;-82
2023/07/29 03:27:10;;;;;;;2.45;1.10;;;;;;;;;;5055735;28;20230;-81
2023/07/29 03:29:37;;;;;;;1.60;1.50;;;;;;;;;;5062247;28;20320;-82
2023/07/29 03:32:04;;;;;;;1.40;1.30;;;;;;;;;;5048108;28;20245;-81
2023/07/29 03:34:31;;;;;;;1.75;1.33;;;;;;;;;;5053408;28;20199;-82
2023/07/29 03:36:58;;;;;;;2.42;1.67;;;;;;;;;;5055204;28;20230;-82
2023/07/29 03:39:25;;;;;;;1.60;1.45;;;;;;;;;;5056072;28;20222;-81
2023/07/29 03:41:54;;;;;;;1.40;1.30;;;;;;;;;;5055131;28;20329;-80
2023/07/29 03:44:21;;;;;;;1.48;1.38;;;;;;;;;;5060185;28;20210;-81
2023/07/29 03:46:48;;;;;;;2.05;1.50;;;;;;;;;;5042512;28;20217;-82
2023/07/29 03:49:15;;;;;;;3.80;1.90;;;;;;;;;;5055769;28;20233;-82
2023/07/29 03:51:42;;;;;;;1.20;1.20;;;;;;;;;;5052431;28;20230;-83
2023/07/29 03:54:09;;;;;;;1.52;1.42;;;;;;;;;;5057746;28;20213;-82
2023/07/29 03:56:36;;;;;;;1.60;1.52;;;;;;;;;;5061921;28;20199;-82
2023/07/29 03:59:05;;;;;;;1.42;1.33;;;;;;;;;;5064014;28;20714;-82
2023/07/29 04:01:33;;;;;;;3.45;1.70;;;;;;;;;;5055604;28;20201;-81
2023/07/29 04:04:00;;;;;;;2.92;1.60;;;;;;;;;;5055200;28;20239;-82
2023/07/29 04:06:27;;;;;;;1.95;1.75;;;;;;;;;;5039551;28;20218;-82
2023/07/29 04:08:54;;;;;;;1.38;1.25;;;;;;;;;;5055367;28;20728;-82
2023/07/29 04:11:22;;;;;;;2.35;1.45;;;;;;;;;;5058805;28;20221;-81
2023/07/29 04:13:49;;;;;;;1.35;1.30;;;;;;;;;;5051936;28;20240;-82
2023/07/29 04:16:17;;;;;;;1.48;1.25;;;;;;;;;;5063693;28;20208;-82
2023/07/29 04:18:44;;;;;;;1.70;1.60;;;;;;;;;;5063205;28;20233;-82
2023/07/29 04:21:12;;;;;;;2.92;1.48;;;;;;;;;;5055177;28;20211;-81
2023/07/29 04:23:40;;;;;;;1.52;1.40;;;;;;;;;;5054821;28;20242;-82
2023/07/29 04:26:07;;;;;;;1.60;1.50;;;;;;;;;;5054206;28;20575;-82
2023/07/29 04:28:34;;;;;;;1.58;1.48;;;;;;;;;;5054647;28;20238;-82
2023/07/29 04:31:01;;;;;;;1.40;1.30;;;;;;;;;;5061679;28;20209;-82
2023/07/29 04:33:30;;;;;;;1.50;1.40;;;;;;;;;;5046521;28;20233;-82
2023/07/29 04:35:57;;;;;;;2.00;1.55;;;;;;;;;;5054953;28;20211;-82
2023/07/29 04:38:26;;;;;;;5.00;1.60;;;;;;;;;;5045341;28;20236;-82
2023/07/29 04:40:53;;;;;;;1.70;1.40;;;;;;;;;;5060840;28;20209;-80
2023/07/29 04:43:20;;;;;;;1.50;1.40;;;;;;;;;;5056520;28;20229;-81
2023/07/29 04:46:03;;;;;;;1.40;1.27;;;;;;;;;;5062125;28;20261;-82
2023/07/29 04:48:35;;;;;;;1.35;1.30;;;;;;;;;;5034288;28;20629;-81
2023/07/29 04:51:03;;;;;;;1.38;1.27;;;;;;;;;;5038066;28;20576;-82
2023/07/29 04:53:30;;;;;;;4.07;1.83;;;;;;;;;;5050503;28;20229;-81
2023/07/29 04:55:58;;;;;;;1.25;1.10;;;;;;;;;;5067826;28;20212;-82
2023/07/29 04:58:28;;;;;;;2.45;1.70;;;;;;;;;;5054058;28;20236;-82
2023/07/29 05:01:10;;;;;;;3.47;1.80;;;;;;;;;;5055897;28;20582;-82
2023/07/29 05:03:39;;;;;;;2.05;1.95;;;;;;;;;;5045359;28;20236;-82
2023/07/29 05:06:07;;;;;;;1.60;1.50;;;;;;;;;;5040741;28;20219;-82
2023/07/29 05:08:38;;;;;;;1.83;1.40;;;;;;;;;;5034471;28;20226;-83
2023/07/29 05:11:05;;;;;;;1.45;1.35;;;;;;;;;;5035551;28;20206;-82
2023/07/29 05:13:35;;;;;;;1.80;1.70;;;;;;;;;;5059090;28;20221;-82
2023/07/29 05:16:04;;;;;;;1.60;1.50;;;;;;;;;;5058298;28;20207;-82
2023/07/29 05:18:37;;;;;;;1.70;1.60;;;;;;;;;;5050422;28;20225;-82
2023/07/29 05:21:08;;;;;;;2.65;1.60;;;;;;;;;;5068158;28;20234;-83
2023/07/29 05:26:33;;;;;;;1.52;1.42;;;;;;;;;;5056939;28;20216;-83
2023/07/29 05:29:00;;;;;;;1.70;1.60;;;;;;;;;;5058010;28;20309;-82
2023/07/29 05:31:28;;;;;;;1.70;1.60;;;;;;;;;;5058270;28;20209;-83
2023/07/29 05:33:55;;;;;;;1.80;1.70;;;;;;;;;;5066398;28;20240;-82
2023/07/29 05:36:31;;;;;;;1.90;1.80;;;;;;;;;;5061832;28;20754;-82
2023/07/29 05:38:58;;;;;;;2.10;1.90;;;;;;;;;;5070604;28;20678;-82
2023/07/29 05:41:29;;;;;;;1.60;1.50;;;;;;;;;;5066756;28;20201;-82
2023/07/29 05:43:59;;;;;;;1.58;1.48;;;;;;;;;;5048170;28;20226;-83
2023/07/29 05:46:26;;;;;;;2.13;1.70;;;;;;;;;;5049066;28;20202;-82
2023/07/29 05:48:56;;;;;;;2.00;1.70;;;;;;;;;;5053305;28;20240;-82
2023/07/29 05:51:25;;;;;;;1.67;1.58;;;;;;;;;;5069391;28;20193;-81
2023/07/29 05:53:52;;;;;;;2.17;1.60;;;;;;;;;;5059921;28;20307;-82
2023/07/29 05:56:20;;;;;;;3.50;1.75;;;;;;;;;;5036754;28;20203;-82
2023/07/29 05:58:49;;;;;;;4.45;1.90;;;;;;;;;;5038471;28;20280;-82
2023/07/29 06:01:23;;;;;;;2.47;1.75;;;;;;;;;;5051916;28;20293;-82
2023/07/29 06:03:55;;;;;;;1.58;1.48;;;;;;;;;;5033850;28;20801;-84
2023/07/29 06:06:25;;;;;;;1.75;1.65;;;;;;;;;;5034164;28;20626;-84
2023/07/29 06:08:57;;;;;;;2.50;1.63;;;;;;;;;;5041710;28;20234;-83
2023/07/29 06:11:29;;;;;;;2.38;1.70;;;;;;;;;;5033929;28;20293;-83
2023/07/29 06:13:58;;;;;;;2.10;1.85;;;;;;;;;;5044035;28;20320;-83
2023/07/29 06:16:32;;;;;;;2.47;1.73;;;;;;;;;;5054083;28;20206;-83
2023/07/29 06:19:03;;;;;;;1.98;1.80;;;;;;;;;;5054091;28;20242;-83
2023/07/29 06:21:32;;;;;;;1.83;1.73;;;;;;;;;;5033937;28;20297;-84
2023/07/29 06:24:05;;;;;;;1.83;1.48;;;;;;;;;;5039528;28;20308;-84
2023/07/29 06:26:33;;;;;;;4.25;1.75;;;;;;;;;;5058757;28;20673;-84
2023/07/29 06:29:04;;;;;;;3.78;1.80;;;;;;;;;;5008581;28;20857;-84
2023/07/29 06:31:32;;;;;;;1.55;1.45;;;;;;;;;;5061789;28;20209;-84
2023/07/29 06:34:02;;;;;;;3.15;1.75;;;;;;;;;;5044607;28;20230;-84
2023/07/29 06:36:29;;;;;;;1.98;1.70;;;;;;;;;;5056717;28;20208;-84
2023/07/29 06:38:58;;;;;;;3.15;1.77;;;;;;;;;;5066783;28;20226;-84
2023/07/29 06:41:30;;;;;;;2.33;1.60;;;;;;;;;;5053073;28;20206;-83
2023/07/29 06:43:58;;;;;;;1.83;1.73;;;;;;;;;;5039229;28;20291;-82
2023/07/29 06:46:29;;;;;;;1.73;1.63;;;;;;;;;;5052480;28;20233;-84
2023/07/29 06:48:56;;;;;;;2.22;1.80;;;;;;;;;;5059693;28;20731;-84
2023/07/29 06:51:23;;;;;;;2.30;1.85;;;;;;;;;;5059383;28;20213;-85
2023/07/29 06:53:50;;;;;;;9.73;2.30;;;;;;;;;;5053119;28;20238;-84
2023/07/29 06:56:17;;;;;;;3.67;1.95;;;;;;;;;;5031145;28;20573;-84
2023/07/29 06:58:47;;;;;;;6.30;1.95;;;;;;;;;;5031095;28;20238;-82
2023/07/29 07:01:16;;;;;;;2.80;1.70;;;;;;;;;;5032663;28;20298;-83
2023/07/29 07:03:44;;;;;;;3.67;1.92;;;;;;;;;;5054626;28;20245;-83
2023/07/29 07:06:13;;;;;;;1.73;1.63;;;;;;;;;;5045308;28;20757;-83
2023/07/29 07:08:41;;;;;;;3.67;2.17;;;;;;;;;;5045188;28;20240;-84
2023/07/29 07:11:09;;;;;;;1.85;1.75;;;;;;;;;;5046348;28;20643;-83
2023/07/29 07:13:37;;;;;;;3.58;1.75;;;;;;;;;;5033457;28;20230;-84
2023/07/29 07:16:08;;;;;;;3.38;1.88;;;;;;;;;;5050366;28;20293;-83
2023/07/29 07:18:35;;;;;;;2.92;1.70;;;;;;;;;;5068911;23;20250;-89
2023/07/29 07:21:02;;;;;;;3.58;1.88;;;;;;;;;;5056121;28;20213;-90
2023/07/29 07:23:29;;;;;;;5.13;2.28;;;;;;;;;;5048996;28;20229;-88
2023/07/29 07:25:56;;;;;;;3.15;1.80;;;;;;;;;;5044638;28;20217;-88
2023/07/29 07:28:23;;;;;;;1.70;1.60;;;;;;;;;;5052028;28;20238;-91
2023/07/29 07:30:51;;;;;;;2.08;1.80;;;;;;;;;;5028694;28;20217;-91
2023/07/29 07:33:19;;;;;;;2.72;1.50;;;;;;;;;;5025182;28;20233;-89
2023/07/29 07:35:46;;;;;;;1.98;1.60;;;;;;;;;;5017430;28;20326;-90
2023/07/29 07:38:13;;;;;;;1.98;1.73;;;;;;;;;;5022640;28;20725;-91
2023/07/29 07:40:40;;;;;;;1.75;1.63;;;;;;;;;;5031802;28;20219;-91
2023/07/29 07:43:07;;;;;;;1.35;1.25;;;;;;;;;;5034114;28;20253;-91
2023/07/29 07:45:34;;;;;;;3.25;1.55;;;;;;;;;;5024491;28;20661;-91
2023/07/29 07:48:02;;;;;;;6.60;2.10;;;;;;;;;;5016496;28;20240;-92
2023/07/29 07:50:31;;;;;;;5.38;2.22;;;;;;;;;;5016988;28;20231;-93
2023/07/29 07:52:58;;;;;;;3.85;1.55;;;;;;;;;;5022506;28;20230;-92
2023/07/29 07:55:25;;;;;;;2.75;1.45;;;;;;;;;;5036365;28;20217;-92
2023/07/29 07:57:52;;;;;;;2.10;1.50;;;;;;;;;;5036014;28;20605;-92
2023/07/29 08:00:20;;;;;;;1.20;1.10;;;;;;;;;;5051620;28;20256;-93
2023/07/29 08:02:47;;;;;;;0.82;0.80;;;;;;;;;;5036198;28;20250;-92
2023/07/29 08:05:14;;;;;;;1.00;1.00;;;;;;;;;;5036723;28;20209;-92
2023/07/29 08:07:42;;;;;;;1.00;1.00;;;;;;;;;;5036321;28;20245;-93
2023/07/29 08:10:09;;;;;;;1.10;1.00;;;;;;;;;;5036762;28;20227;-92
2023/07/29 08:12:36;;;;;;;2.65;1.25;;;;;;;;;;5027093;28;20246;-91
2023/07/29 08:15:04;;;;;;;0.90;0.90;;;;;;;;;;5035134;28;20211;-93
2023/07/29 08:17:31;;;;;;;0.77;0.77;;;;;;;;;;5037296;28;20237;-92
2023/07/29 08:19:58;;;;;;;1.13;1.13;;;;;;;;;;5026198;28;20238;-92
2023/07/29 08:22:25;;;;;;;1.42;1.30;;;;;;;;;;5039850;28;20225;-92
2023/07/29 08:24:53;;;;;;;1.08;1.08;;;;;;;;;;5026849;28;20245;-90
2023/07/29 08:27:20;;;;;;;2.53;1.10;;;;;;;;;;5035801;28;20238;-91
2023/07/29 08:29:47;;;;;;;0.90;0.90;;;;;;;;;;5036860;28;20219;-92
2023/07/29 08:32:14;;;;;;;3.08;1.20;;;;;;;;;;5043997;28;20703;-91
2023/07/29 08:34:41;;;;;;;1.30;1.17;;;;;;;;;;5055150;28;20218;-90
2023/07/29 08:37:08;;;;;;;3.97;1.50;;;;;;;;;;5034825;28;20242;-91
2023/07/29 08:39:35;;;;;;;1.30;1.20;;;;;;;;;;5033006;28;20226;-92
2023/07/29 08:42:05;;;;;;;1.77;1.30;;;;;;;;;;5045765;28;20233;-92
2023/07/29 08:44:36;;;;;;;3.90;2.13;;;;;;;;;;5027168;28;20229;-91
2023/07/29 08:47:03;;;;;;;1.80;1.70;;;;;;;;;;5042453;28;20230;-91
2023/07/29 08:49:31;;;;;;;1.63;1.52;;;;;;;;;;5034500;28;20223;-90
2023/07/29 08:51:59;;;;;;;1.77;1.63;;;;;;;;;;5033764;28;20249;-90
2023/07/29 08:54:26;;;;;;;3.90;1.60;;;;;;;;;;5031760;28;20250;-90
2023/07/29 08:56:53;;;;;;;1.65;1.55;;;;;;;;;;5028353;28;20230;-89
2023/07/29 08:59:22;;;;;;;1.40;1.30;;;;;;;;;;5034388;28;20219;-88
2023/07/29 09:01:49;;;;;;;1.60;1.50;;;;;;;;;;5040908;28;20210;-90
2023/07/29 09:04:17;;;;;;;1.85;1.75;;;;;;;;;;5034313;28;20249;-90
2023/07/29 09:06:44;;;;;;;1.80;1.70;;;;;;;;;;5033054;28;20242;-88
2023/07/29 09:09:11;;;;;;;1.90;1.80;;;;;;;;;;5033437;28;20227;-88
2023/07/29 09:11:39;;;;;;;3.60;1.77;;;;;;;;;;5032612;28;20253;-88
2023/07/29 09:14:06;;;;;;;3.22;1.85;;;;;;;;;;5033257;28;20227;-91
2023/07/29 09:16:34;;;;;;;1.40;1.40;;;;;;;;;;5041084;28;20195;-88
2023/07/29 09:19:03;;;;;;;2.42;1.90;;;;;;;;;;5032957;28;20230;-88
2023/07/29 09:21:31;;;;;;;2.08;1.40;;;;;;;;;;5032790;28;20210;-89
2023/07/29 09:23:58;;;;;;;1.45;1.33;;;;;;;;;;5032907;28;20726;-89
2023/07/29 09:26:25;;;;;;;1.40;1.30;;;;;;;;;;5032925;28;20206;-89
2023/07/29 09:28:53;;;;;;;1.10;1.10;;;;;;;;;;5032409;28;20253;-89
2023/07/29 09:31:21;;;;;;;2.88;1.20;;;;;;;;;;5032691;28;20222;-90
2023/07/29 09:33:49;;;;;;;1.25;1.15;;;;;;;;;;5031669;28;20322;-89
2023/07/29 09:36:17;;;;;;;1.33;1.23;;;;;;;;;;5032620;28;20202;-90
2023/07/29 09:38:45;;;;;;;0.93;0.93;;;;;;;;;;5032327;28;20234;-89
2023/07/29 09:41:13;;;;;;;1.10;0.80;;;;;;;;;;5028411;28;20226;-90
2023/07/29 09:43:40;;;;;;;1.00;0.88;;;;;;;;;;5032101;28;20245;-91
2023/07/29 09:46:08;;;;;;;0.80;0.80;;;;;;;;;;5034642;28;20585;-91
2023/07/29 09:48:35;;;;;;;0.80;0.80;;;;;;;;;;5015365;28;20236;-91
2023/07/29 09:51:10;;;;;;;1.17;1.08;;;;;;;;;;5033049;28;20207;-91
2023/07/29 09:53:40;;;;;;;4.28;1.52;;;;;;;;;;5032242;28;20727;-90
2023/07/29 09:56:07;;;;;;;0.75;0.75;;;;;;;;;;5032728;28;20210;-91
2023/07/29 09:58:37;;;;;;;0.70;0.70;;;;;;;;;;5031827;28;20230;-88
2023/07/29 10:01:04;;;;;;;3.10;0.82;;;;;;;;;;5027092;28;20256;-89
2023/07/29 10:03:33;;;;;;;1.50;0.80;;;;;;;;;;5031210;28;20222;-90
2023/07/29 10:06:01;;;;;;;1.10;1.00;;;;;;;;;;5029544;28;20657;-92
2023/07/29 10:08:31;;;;;;;0.85;0.85;;;;;;;;;;5031609;28;20226;-90
2023/07/29 10:10:59;;;;;;;0.93;0.93;;;;;;;;;;5041115;28;20239;-91
2023/07/29 10:13:27;;;;;;;0.50;0.50;;;;;;;;;;5029960;28;20237;-92
2023/07/29 10:15:55;;;;;;;0.77;0.77;;;;;;;;;;5020418;28;20207;-89
2023/07/29 10:18:23;;;;;;;1.35;1.13;;;;;;;;;;5013493;28;20739;-91
2023/07/29 10:20:51;;;;;;;0.80;0.80;;;;;;;;;;5015376;28;20207;-91
2023/07/29 10:23:19;;;;;;;1.83;1.17;;;;;;;;;;5028643;28;20292;-90
2023/07/29 10:25:51;;;;;;;1.48;0.95;;;;;;;;;;5014112;28;20211;-91
2023/07/29 10:28:19;;;;;;;1.23;0.80;;;;;;;;;;5013631;28;20265;-91
2023/07/29 10:30:46;;;;;;;1.10;1.00;;;;;;;;;;5013137;28;20203;-91
2023/07/29 10:33:13;;;;;;;1.05;0.95;;;;;;;;;;5013011;28;20235;-90
2023/07/29 10:35:41;;;;;;;0.95;0.95;;;;;;;;;;5036714;28;20582;-92
2023/07/29 10:38:08;;;;;;;1.15;1.10;;;;;;;;;;5028763;28;20226;-91
2023/07/29 10:40:45;;;;;;;1.02;0.93;;;;;;;;;;5031657;28;20604;-92
2023/07/29 10:43:14;;;;;;;0.80;0.80;;;;;;;;;;5033858;28;20218;-91
2023/07/29 10:45:42;;;;;;;0.80;0.80;;;;;;;;;;5034439;28;20226;-90
2023/07/29 10:48:12;;;;;;;1.00;0.90;;;;;;;;;;5036950;28;20265;-90
2023/07/29 10:50:39;;;;;;;1.38;0.80;;;;;;;;;;5035216;28;20214;-92
2023/07/29 10:53:06;;;;;;;1.15;1.08;;;;;;;;;;5040505;28;20234;-93
2023/07/29 10:55:34;;;;;;;1.23;1.13;;;;;;;;;;5034365;28;20214;-90
2023/07/29 10:58:09;;;;;;;1.27;1.08;;;;;;;;;;5037235;28;20236;-91
2023/07/29 11:00:37;;;;;;;1.30;1.20;;;;;;;;;;5037530;28;20252;-91
2023/07/29 11:03:06;;;;;;;1.20;1.10;;;;;;;;;;5035553;28;20684;-90
2023/07/29 11:05:46;;;;;;;1.88;1.45;;;;;;;;;;5034258;28;20282;-92
2023/07/29 11:08:18;;;;;;;1.65;1.02;;;;;;;;;;5031161;28;20234;-92
2023/07/29 11:10:45;;;;;;;1.33;1.20;;;;;;;;;;5036106;28;20202;-92
2023/07/29 11:13:13;;;;;;;1.35;1.25;;;;;;;;;;5034531;28;20234;-91
2023/07/29 11:15:42;;;;;;;1.40;1.30;;;;;;;;;;5043299;28;20210;-92
2023/07/29 11:18:11;;;;;;;1.40;1.30;;;;;;;;;;5042084;28;20237;-92
2023/07/29 11:20:38;;;;;;;1.35;1.25;;;;;;;;;;5035173;28;20210;-90
2023/07/29 11:23:05;;;;;;;1.13;1.02;;;;;;;;;;5034831;28;20739;-90
2023/07/29 11:25:35;;;;;;;1.10;1.10;;;;;;;;;;5043844;28;20194;-91
2023/07/29 11:28:02;;;;;;;1.35;1.00;;;;;;;;;;5028986;28;20226;-90
2023/07/29 11:30:30;;;;;;;0.75;0.75;;;;;;;;;;5034903;28;20226;-90
2023/07/29 11:32:59;;;;;;;0.93;0.93;;;;;;;;;;5033038;28;20320;-90
2023/07/29 11:35:27;;;;;;;1.38;1.27;;;;;;;;;;5033744;28;20787;-91
2023/07/29 11:37:56;;;;;;;1.02;1.00;;;;;;;;;;5027477;28;20224;-88
2023/07/29 11:40:24;;;;;;;1.42;1.30;;;;;;;;;;5038015;28;20245;-88
2023/07/29 11:42:52;;;;;;;1.30;1.20;;;;;;;;;;5036757;28;20234;-88
2023/07/29 11:45:19;;;;;;;1.23;1.00;;;;;;;;;;5044499;28;20507;-92
2023/07/29 11:47:47;;;;;;;1.40;1.30;;;;;;;;;;5032381;28;20612;-92
2023/07/29 11:50:15;;;;;;;3.75;1.20;;;;;;;;;;5034313;28;20223;-90
2023/07/29 11:52:43;;;;;;;1.02;1.02;;;;;;;;;;5034184;28;20233;-93
2023/07/29 11:55:10;;;;;;;1.70;1.13;;;;;;;;;;5034353;28;20236;-87
2023/07/29 11:57:38;;;;;;;1.38;1.27;;;;;;;;;;5034018;28;20230;-92
2023/07/29 12:00:06;;;;;;;1.02;1.02;;;;;;;;;;5034212;28;20314;-89
2023/07/29 12:02:33;;;;;;;1.67;1.35;;;;;;;;;;5033765;28;20651;-89
2023/07/29 12:05:01;;;;;;;1.48;1.38;;;;;;;;;;5034823;28;20567;-89
2023/07/29 12:07:29;;;;;;;1.15;1.02;;;;;;;;;;5034330;28;20230;-90
2023/07/29 12:09:56;;;;;;;1.20;1.10;;;;;;;;;;5034112;28;20223;-90
2023/07/29 12:12:24;;;;;;;1.42;1.33;;;;;;;;;;5033553;28;20231;-91
2023/07/29 12:14:51;;;;;;;2.88;1.02;;;;;;;;;;5033806;28;20725;-87
2023/07/29 12:17:19;;;;;;;1.08;1.08;;;;;;;;;;5033481;28;20233;-89
2023/07/29 12:19:46;;;;;;;1.10;1.10;;;;;;;;;;5033064;28;20625;-88
2023/07/29 12:22:13;;;;;;;1.40;1.30;;;;;;;;;;5032828;28;20231;-87
2023/07/29 12:24:42;;;;;;;2.33;1.17;;;;;;;;;;5033672;28;20253;-89
2023/07/29 12:27:12;;;;;;;1.50;1.30;;;;;;;;;;5033154;28;20242;-90
2023/07/29 12:29:42;;;;;;;2.22;1.20;;;;;;;;;;5033476;28;20562;-90
2023/07/29 12:32:09;;;;;;;1.42;1.33;;;;;;;;;;5032776;28;20294;-88
2023/07/29 12:34:37;;;;;;;1.10;1.00;;;;;;;;;;5033264;28;20238;-89
2023/07/29 12:37:05;;;;;;;0.98;0.98;;;;;;;;;;5032999;28;20241;-90
2023/07/29 12:39:34;;;;;;;1.67;1.30;;;;;;;;;;5033594;28;20285;-90
2023/07/29 12:42:04;;;;;;;1.42;1.33;;;;;;;;;;5033131;28;20235;-89
2023/07/29 12:44:32;;;;;;;1.08;1.08;;;;;;;;;;5033235;28;20234;-90
2023/07/29 12:46:59;;;;;;;1.63;1.10;;;;;;;;;;5032776;28;20237;-90
2023/07/29 12:49:26;;;;;;;1.70;1.20;;;;;;;;;;5033381;28;20226;-90
2023/07/29 12:51:53;;;;;;;1.42;1.30;;;;;;;;;;5032373;28;20246;-88
2023/07/29 12:54:20;;;;;;;2.67;1.30;;;;;;;;;;5033153;28;20226;-87
2023/07/29 12:56:47;;;;;;;1.38;1.27;;;;;;;;;;5032466;28;20213;-89
2023/07/29 12:59:15;;;;;;;1.10;1.00;;;;;;;;;;5033108;28;20230;-91
2023/07/29 13:01:42;;;;;;;3.35;1.27;;;;;;;;;;5032794;28;20206;-91
2023/07/29 13:04:10;;;;;;;2.92;1.00;;;;;;;;;;5033099;28;20206;-91
2023/07/29 13:06:37;;;;;;;1.90;1.10;;;;;;;;;;5031798;28;20211;-90
2023/07/29 13:09:05;;;;;;;3.08;1.10;;;;;;;;;;5032972;28;20304;-88
2023/07/29 13:11:33;;;;;;;1.27;0.90;;;;;;;;;;5032907;28;20203;-89
2023/07/29 13:14:00;;;;;;;0.85;0.85;;;;;;;;;;5032477;28;20239;-88
2023/07/29 13:16:28;;;;;;;1.08;1.08;;;;;;;;;;5032923;28;20302;-89
2023/07/29 13:18:56;;;;;;;1.35;1.25;;;;;;;;;;5031947;28;20238;-80
2023/07/29 13:21:23;;;;;;;1.25;1.15;;;;;;;;;;5031882;28;20238;-80
2023/07/29 13:23:50;;;;;;;1.10;1.00;;;;;;;;;;5031382;28;20242;-80
2023/07/29 13:26:17;;;;;;;2.58;1.45;;;;;;;;;;5031943;28;20218;-80
2023/07/29 13:28:44;;;;;;;1.67;1.10;;;;;;;;;;5031167;28;20241;-80
2023/07/29 13:31:11;;;;;;;1.33;1.23;;;;;;;;;;5031865;28;20238;-80
2023/07/29 13:33:40;;;;;;;1.58;1.17;;;;;;;;;;5031240;28;20230;-80
2023/07/29 13:36:08;;;;;;;3.00;1.00;;;;;;;;;;5031596;28;20238;-80
2023/07/29 13:38:35;;;;;;;1.17;1.08;;;;;;;;;;5031039;28;20626;-80
2023/07/29 13:41:02;;;;;;;1.35;1.13;;;;;;;;;;5031808;28;20210;-80
2023/07/29 13:43:29;;;;;;;1.35;1.25;;;;;;;;;;5031185;28;20285;-80
2023/07/29 13:45:56;;;;;;;1.58;1.08;;;;;;;;;;5031959;28;20207;-80
2023/07/29 13:48:23;;;;;;;0.95;0.95;;;;;;;;;;5031289;28;20234;-81
2023/07/29 13:50:52;;;;;;;3.58;1.40;;;;;;;;;;5031367;28;20560;-80
2023/07/29 13:53:19;;;;;;;1.38;1.27;;;;;;;;;;5031044;28;20739;-80
2023/07/29 13:55:46;;;;;;;1.40;1.20;;;;;;;;;;5031297;28;20230;-80
2023/07/29 13:58:13;;;;;;;1.23;1.13;;;;;;;;;;5030677;28;20732;-80
2023/07/29 14:00:40;;;;;;;1.33;1.27;;;;;;;;;;5011621;28;20203;-81
2023/07/29 14:03:07;;;;;;;2.35;1.20;;;;;;;;;;5011195;28;20239;-81
2023/07/29 14:05:34;;;;;;;1.50;1.40;;;;;;;;;;5011762;28;20214;-80
2023/07/29 14:08:02;;;;;;;1.88;0.98;;;;;;;;;;5011269;28;20235;-79
2023/07/29 14:10:29;;;;;;;1.45;1.35;;;;;;;;;;5011444;28;20219;-80
2023/07/29 14:12:56;;;;;;;1.02;1.00;;;;;;;;;;5011115;28;20235;-80
2023/07/29 14:15:23;;;;;;;1.25;1.15;;;;;;;;;;5011502;28;20594;-81
2023/07/29 14:17:51;;;;;;;1.67;1.20;;;;;;;;;;5011137;28;20239;-80
2023/07/29 14:20:19;;;;;;;1.05;1.05;;;;;;;;;;5014675;28;20266;-80
2023/07/29 14:22:46;;;;;;;3.67;1.05;;;;;;;;;;5014784;28;20669;-80
2023/07/29 14:25:15;;;;;;;1.73;1.15;;;;;;;;;;5015431;28;20203;-81
2023/07/29 14:27:42;;;;;;;1.30;1.20;;;;;;;;;;5015066;28;20235;-80
2023/07/29 14:30:10;;;;;;;1.38;1.00;;;;;;;;;;5015372;28;20222;-80
2023/07/29 14:32:37;;;;;;;0.90;0.90;;;;;;;;;;5014508;28;20231;-81
2023/07/29 14:35:04;;;;;;;5.50;1.00;;;;;;;;;;5015263;28;20616;-78
2023/07/29 14:37:32;;;;;;;1.10;1.00;;;;;;;;;;5014746;28;20234;-80
2023/07/29 14:39:59;;;;;;;1.92;1.20;;;;;;;;;;5015197;28;20231;-80
2023/07/29 14:42:28;;;;;;;1.38;1.27;;;;;;;;;;5014611;28;20231;-80
2023/07/29 14:44:55;;;;;;;1.50;1.40;;;;;;;;;;5015055;28;20621;-79
2023/07/29 14:47:23;;;;;;;2.15;1.20;;;;;;;;;;5014651;28;20231;-80
2023/07/29 14:49:50;;;;;;;1.20;1.10;;;;;;;;;;5014755;28;20318;-80